Time;durP1;ratioP1;P1;durP2;ratioP2;P2;SDS_P1;SDS_P2;PMS_P1;PMS_P2;Temp;Humidity;BMP_temperature;BMP_pressure;BME280_temperature;BME280_humidity;BME280_pressure;Samples;Min_cycle;Max_cycle;Signal;HPM_P1;HPM_P2
2021/04/30 00:01:53;;;;;;;5.20;4.80;;;;;;;6.62;82.43;99853.84;630997;225;23706;-77
2021/04/30 00:04:20;;;;;;;7.30;5.90;;;;;;;5.99;83.83;99851.75;632359;225;25191;-79
2021/04/30 00:06:48;;;;;;;5.23;4.80;;;;;;;5.60;86.18;99861.23;632129;225;24876;-79
2021/04/30 00:09:17;;;;;;;6.27;5.40;;;;;;;5.30;87.64;99863.66;644182;221;24801;-79
2021/04/30 00:11:44;;;;;;;8.30;5.83;;;;;;;5.56;88.38;99869.35;630180;225;24856;-79
2021/04/30 00:14:12;;;;;;;7.40;5.80;;;;;;;6.17;86.30;99869.59;642341;221;24871;-78
2021/04/30 00:16:40;;;;;;;7.73;6.63;;;;;;;6.26;86.56;99870.15;630347;225;24833;-79
2021/04/30 00:19:08;;;;;;;8.40;6.95;;;;;;;6.55;86.36;99869.03;638541;221;32968;-79
2021/04/30 00:21:36;;;;;;;10.87;6.73;;;;;;;6.13;87.27;99874.67;633918;225;23792;-79
2021/04/30 00:24:05;;;;;;;7.78;6.47;;;;;;;6.45;86.11;99875.89;638348;221;32761;-79
2021/04/30 00:26:33;;;;;;;6.70;6.00;;;;;;;5.86;87.82;99886.72;641285;220;23711;-79
2021/04/30 00:29:01;;;;;;;6.53;5.80;;;;;;;6.36;85.97;99887.82;631311;225;32933;-79
2021/04/30 00:31:29;;;;;;;6.50;5.90;;;;;;;6.22;86.93;99885.55;644277;221;24808;-79
2021/04/30 00:33:58;;;;;;;5.63;5.10;;;;;;;5.92;87.77;99885.81;643595;221;24806;-79
2021/04/30 00:36:26;;;;;;;5.10;4.67;;;;;;;6.06;87.24;99887.75;633299;225;24818;-78
2021/04/30 00:38:54;;;;;;;5.63;5.13;;;;;;;6.02;86.52;99883.28;636143;225;24907;-79
2021/04/30 00:41:23;;;;;;;5.87;5.37;;;;;;;6.46;82.73;99864.61;626781;226;32759;-79
2021/04/30 00:43:51;;;;;;;6.80;6.20;;;;;;;6.53;82.21;99852.36;620807;225;32807;-79
2021/04/30 00:46:19;;;;;;;7.43;6.00;;;;;;;5.85;84.84;99870.42;629880;226;26930;-79
2021/04/30 00:48:47;;;;;;;6.20;5.60;;;;;;;5.91;86.00;99872.56;640443;221;24807;-79
2021/04/30 00:51:15;;;;;;;6.03;5.40;;;;;;;5.80;86.27;99880.30;630345;225;26013;-78
2021/04/30 00:53:43;;;;;;;4.90;4.40;;;;;;;5.98;85.93;99879.80;644916;220;24896;-79
2021/04/30 00:56:11;;;;;;;5.77;5.17;;;;;;;5.91;84.13;99869.98;641934;221;31198;-79
2021/04/30 00:58:39;;;;;;;6.60;5.20;;;;;;;5.84;84.71;99879.11;643675;221;25872;-79
2021/04/30 01:01:08;;;;;;;5.97;5.47;;;;;;;6.55;83.15;99868.55;633887;222;32650;-79
2021/04/30 01:03:35;;;;;;;6.07;5.47;;;;;;;6.24;83.30;99871.56;644354;221;23698;-79
2021/04/30 01:06:04;;;;;;;5.43;4.93;;;;;;;6.07;84.15;99872.61;643379;221;24856;-79
2021/04/30 01:08:32;;;;;;;6.33;5.73;;;;;;;6.10;84.28;99872.34;632417;225;24812;-79
2021/04/30 01:11:00;;;;;;;6.70;5.50;;;;;;;6.11;85.66;99877.86;633993;225;24867;-79
2021/04/30 01:13:28;;;;;;;5.90;5.37;;;;;;;5.94;84.41;99872.30;640560;224;24815;-79
2021/04/30 01:15:56;;;;;;;4.80;4.33;;;;;;;6.02;83.92;99877.30;643655;221;24804;-79
2021/04/30 01:18:25;;;;;;;5.50;5.00;;;;;;;5.78;84.21;99868.00;638415;225;24836;-79
2021/04/30 01:20:53;;;;;;;5.30;4.80;;;;;;;5.82;83.96;99873.73;632511;225;28027;-79
2021/04/30 01:23:21;;;;;;;6.03;5.20;;;;;;;5.79;83.88;99872.22;643175;220;24810;-79
2021/04/30 01:25:48;;;;;;;4.40;4.00;;;;;;;5.50;84.53;99864.69;630266;226;24843;-79
2021/04/30 01:28:16;;;;;;;6.67;5.47;;;;;;;5.56;85.57;99874.51;626978;225;24876;-79
2021/04/30 01:30:44;;;;;;;6.07;5.03;;;;;;;5.74;84.41;99879.48;628070;225;24848;-79
2021/04/30 01:33:17;;;;;;;6.50;5.50;;;;;;;5.66;85.46;99880.59;628995;225;25104;-78
2021/04/30 01:35:45;;;;;;;5.27;4.80;;;;;;;5.59;84.85;99886.69;643517;220;24803;-79
2021/04/30 01:38:12;;;;;;;4.80;4.13;;;;;;;5.23;85.16;99890.88;648957;220;24807;-79
2021/04/30 01:40:40;;;;;;;4.90;4.50;;;;;;;5.12;85.75;99887.83;641386;221;24784;-79
2021/04/30 01:43:08;;;;;;;5.37;4.60;;;;;;;5.04;87.98;99897.89;642036;223;25140;-79
2021/04/30 01:45:36;;;;;;;6.20;4.53;;;;;;;5.11;86.82;99897.80;649270;221;24797;-79
2021/04/30 01:48:05;;;;;;;5.73;5.23;;;;;;;4.56;87.38;99892.14;644609;221;24788;-79
2021/04/30 01:50:33;;;;;;;5.30;4.80;;;;;;;4.50;89.10;99913.18;646658;221;24808;-79
2021/04/30 01:53:02;;;;;;;6.50;4.80;;;;;;;4.52;89.50;99914.73;636170;225;24859;-79
2021/04/30 01:55:30;;;;;;;5.83;5.17;;;;;;;4.53;88.84;99917.66;639670;221;26204;-79
2021/04/30 01:57:58;;;;;;;6.37;5.77;;;;;;;4.59;89.52;99914.61;634575;225;24857;-78
2021/04/30 02:00:26;;;;;;;5.83;5.23;;;;;;;4.27;89.67;99915.71;642712;221;24776;-79
2021/04/30 02:02:54;;;;;;;8.13;6.27;;;;;;;4.32;90.58;99916.19;626857;225;24829;-78
2021/04/30 02:05:22;;;;;;;8.10;5.53;;;;;;;4.39;91.74;99926.40;629395;225;24890;-79
2021/04/30 02:07:50;;;;;;;5.67;5.00;;;;;;;4.27;90.63;99918.75;641850;221;30108;-79
2021/04/30 02:10:18;;;;;;;5.67;5.17;;;;;;;4.17;90.60;99913.45;641008;222;24814;-79
2021/04/30 02:12:46;;;;;;;6.70;5.80;;;;;;;4.18;91.44;99915.09;646101;221;24886;-79
2021/04/30 02:15:14;;;;;;;5.93;5.33;;;;;;;4.00;91.68;99912.57;645057;221;24804;-79
2021/04/30 02:17:42;;;;;;;7.50;6.70;;;;;;;4.03;92.39;99906.73;638720;221;24822;-79
2021/04/30 02:20:11;;;;;;;6.97;6.37;;;;;;;4.02;91.76;99907.66;645236;221;24804;-79
2021/04/30 02:22:39;;;;;;;8.17;6.00;;;;;;;4.01;92.31;99898.77;644126;221;24797;-79
2021/04/30 02:25:07;;;;;;;8.60;6.80;;;;;;;4.23;92.45;99903.19;643389;221;24822;-78
2021/04/30 02:27:35;;;;;;;7.00;6.30;;;;;;;4.18;92.72;99904.33;639613;222;24838;-79
2021/04/30 02:30:03;;;;;;;7.70;6.70;;;;;;;4.26;92.05;99901.67;646938;221;24797;-78
2021/04/30 02:32:34;;;;;;;7.65;6.95;;;;;;;4.93;89.93;99894.87;635888;221;32677;-79
2021/04/30 02:35:02;;;;;;;8.23;6.77;;;;;;;4.63;90.45;99909.58;641461;221;23707;-79
2021/04/30 02:37:30;;;;;;;9.27;6.93;;;;;;;4.29;89.84;99907.41;641579;221;24827;-79
2021/04/30 02:39:58;;;;;;;6.77;5.90;;;;;;;4.29;90.73;99910.45;641340;221;24841;-79
2021/04/30 02:42:26;;;;;;;8.13;6.23;;;;;;;4.39;90.40;99921.72;645338;222;24823;-78
2021/04/30 02:44:54;;;;;;;8.30;6.30;;;;;;;4.52;90.44;99927.61;642782;221;24796;-79
2021/04/30 02:47:28;;;;;;;6.47;5.80;;;;;;;4.51;89.26;99916.14;641407;221;24790;-79
2021/04/30 02:49:52;;;;;;;6.80;6.20;;;;;;;4.62;88.57;99901.97;644427;221;29116;-79
2021/04/30 02:52:18;;;;;;;6.23;5.40;;;;;;;4.49;87.54;99895.63;646925;220;24817;-79
2021/04/30 02:54:46;;;;;;;7.17;5.80;;;;;;;3.88;88.65;99900.12;641666;220;24800;-79
2021/04/30 02:57:14;;;;;;;6.63;5.93;;;;;;;3.92;90.13;99902.00;643693;221;25083;-79
2021/04/30 02:59:42;;;;;;;7.00;6.30;;;;;;;4.31;88.50;99887.52;635130;221;32794;-79
2021/04/30 03:02:10;;;;;;;8.00;7.07;;;;;;;3.88;90.88;99902.69;640798;221;23660;-79
2021/04/30 03:04:38;;;;;;;14.80;7.33;;;;;;;3.83;92.07;99921.03;645002;221;24811;-79
2021/04/30 03:07:05;;;;;;;10.00;7.53;;;;;;;3.85;92.47;99923.03;638400;221;24877;-79
2021/04/30 03:09:33;;;;;;;8.70;6.70;;;;;;;3.72;92.79;99917.58;639687;221;24862;-78
2021/04/30 03:12:01;;;;;;;8.10;6.67;;;;;;;3.88;92.31;99910.41;639824;221;25047;-78
2021/04/30 03:14:30;;;;;;;9.70;7.63;;;;;;;3.71;93.17;99912.08;638421;222;24827;-79
2021/04/30 03:16:58;;;;;;;8.40;7.10;;;;;;;3.63;93.69;99919.04;639753;221;24835;-79
2021/04/30 03:19:26;;;;;;;11.80;7.50;;;;;;;3.65;95.76;99919.75;640793;224;24840;-79
2021/04/30 03:21:54;;;;;;;11.13;7.80;;;;;;;3.70;95.41;99920.73;638607;221;24811;-79
2021/04/30 03:24:21;;;;;;;10.70;9.20;;;;;;;4.17;93.90;99916.84;637531;222;32706;-79
2021/04/30 03:26:49;;;;;;;10.80;9.63;;;;;;;4.38;92.33;99905.45;638659;221;32732;-79
2021/04/30 03:29:17;;;;;;;10.10;9.10;;;;;;;4.83;91.43;99893.11;639237;221;32710;-79
2021/04/30 03:31:45;;;;;;;9.37;8.33;;;;;;;4.33;92.79;99898.52;643849;221;23700;-79
2021/04/30 03:34:13;;;;;;;9.80;8.07;;;;;;;4.11;92.93;99904.44;645563;221;24794;-79
2021/04/30 03:36:42;;;;;;;8.70;7.47;;;;;;;3.88;93.58;99908.66;639487;221;24803;-79
2021/04/30 03:39:11;;;;;;;9.30;7.37;;;;;;;3.78;95.16;99902.98;644116;222;24817;-79
2021/04/30 03:41:38;;;;;;;8.80;7.60;;;;;;;3.84;94.58;99905.14;649204;221;24800;-79
2021/04/30 03:44:06;;;;;;;9.53;7.33;;;;;;;3.88;94.24;99902.69;641429;222;24826;-79
2021/04/30 03:46:34;;;;;;;11.63;7.30;;;;;;;3.83;94.49;99895.31;649266;221;30101;-79
2021/04/30 03:49:02;;;;;;;8.53;6.93;;;;;;;3.83;94.94;99895.78;640950;221;28035;-79
2021/04/30 03:51:30;;;;;;;8.63;7.50;;;;;;;3.91;93.79;99881.88;641437;221;26891;-78
2021/04/30 03:53:58;;;;;;;8.03;7.20;;;;;;;3.91;93.26;99883.64;641212;221;24828;-79
2021/04/30 03:56:26;;;;;;;10.37;7.80;;;;;;;3.84;93.83;99893.56;647511;221;26194;-78
2021/04/30 03:58:54;;;;;;;9.53;8.60;;;;;;;4.48;92.20;99888.84;635956;220;32796;-79
2021/04/30 04:01:22;;;;;;;11.17;9.50;;;;;;;4.03;92.70;99896.91;641080;221;23736;-78
2021/04/30 04:03:50;;;;;;;9.60;8.60;;;;;;;4.07;92.91;99899.13;640229;220;32724;-79
2021/04/30 04:06:18;;;;;;;8.03;7.20;;;;;;;3.82;93.22;99912.97;639159;221;23669;-79
2021/04/30 04:08:46;;;;;;;8.98;8.08;;;;;;;4.06;93.24;99914.22;635249;221;32946;-79
2021/04/30 04:11:14;;;;;;;9.03;7.90;;;;;;;3.83;93.01;99914.61;643244;221;23671;-79
2021/04/30 04:13:41;;;;;;;7.93;7.00;;;;;;;4.01;93.67;99925.32;640653;221;24799;-79
2021/04/30 04:16:09;;;;;;;8.93;7.47;;;;;;;4.19;93.17;99915.44;639940;222;24857;-79
2021/04/30 04:18:38;;;;;;;9.87;7.77;;;;;;;4.16;92.42;99897.19;639717;222;29021;-79
2021/04/30 04:21:06;;;;;;;7.70;6.90;;;;;;;3.97;93.10;99908.47;647750;221;24800;-79
2021/04/30 04:23:33;;;;;;;10.67;7.53;;;;;;;3.99;93.72;99906.61;643514;221;24830;-79
2021/04/30 04:26:01;;;;;;;8.83;7.70;;;;;;;4.07;93.13;99912.47;646279;221;24847;-80
2021/04/30 04:28:29;;;;;;;10.00;8.17;;;;;;;4.01;94.01;99912.45;641190;221;24874;-79
2021/04/30 04:30:58;;;;;;;8.90;7.40;;;;;;;4.03;95.02;99915.73;641275;221;24801;-79
2021/04/30 04:33:25;;;;;;;10.33;8.00;;;;;;;4.22;94.98;99911.81;643995;221;24797;-79
2021/04/30 04:35:53;;;;;;;11.07;8.10;;;;;;;4.44;93.68;99918.33;639101;221;24810;-79
2021/04/30 04:38:20;;;;;;;10.30;9.10;;;;;;;4.99;91.67;99906.46;634790;221;32677;-78
2021/04/30 04:40:48;;;;;;;9.00;8.07;;;;;;;4.71;92.41;99914.17;638118;222;24822;-79
2021/04/30 04:43:16;;;;;;;8.20;7.37;;;;;;;4.67;91.94;99913.59;643804;221;24797;-79
2021/04/30 04:45:44;;;;;;;8.80;7.90;;;;;;;4.69;92.43;99916.86;631436;225;24860;-79
2021/04/30 04:48:12;;;;;;;8.50;7.60;;;;;;;4.75;92.97;99925.41;630321;225;24893;-78
2021/04/30 04:50:40;;;;;;;8.90;7.23;;;;;;;4.72;93.45;99917.09;643706;221;24844;-79
2021/04/30 04:53:08;;;;;;;9.47;8.33;;;;;;;5.07;92.56;99906.70;627695;225;32966;-79
2021/04/30 04:55:36;;;;;;;9.23;8.30;;;;;;;4.88;93.81;99912.89;644819;221;24847;-78
2021/04/30 04:58:03;;;;;;;10.53;8.50;;;;;;;4.84;94.43;99929.05;644022;220;24788;-79
2021/04/30 05:00:33;;;;;;;10.80;9.07;;;;;;;4.95;94.81;99928.25;637888;225;24909;-79
2021/04/30 05:03:00;;;;;;;13.93;9.50;;;;;;;5.18;92.39;99911.83;633525;221;32749;-79
2021/04/30 05:05:28;;;;;;;10.10;8.67;;;;;;;4.95;93.67;99913.61;643963;221;24823;-79
2021/04/30 05:07:56;;;;;;;11.10;8.20;;;;;;;4.81;95.03;99918.17;637486;223;24831;-80
2021/04/30 05:10:24;;;;;;;11.47;8.37;;;;;;;4.81;94.93;99916.88;630767;224;24837;-79
2021/04/30 05:12:53;;;;;;;11.30;9.48;;;;;;;5.17;94.38;99913.24;638362;220;33084;-79
2021/04/30 05:15:21;;;;;;;11.70;9.95;;;;;;;5.45;92.81;99902.90;642121;220;32754;-79
2021/04/30 05:17:48;;;;;;;10.40;9.03;;;;;;;5.18;93.61;99904.10;634107;225;26930;-79
2021/04/30 05:20:16;;;;;;;11.77;9.13;;;;;;;5.36;93.55;99910.43;630767;225;24887;-79
2021/04/30 05:22:45;;;;;;;11.83;9.40;;;;;;;5.50;92.08;99912.41;632718;225;28340;-79
2021/04/30 05:25:13;;;;;;;12.27;8.80;;;;;;;5.49;90.96;99910.73;630895;225;24850;-80
2021/04/30 05:27:41;;;;;;;11.37;8.67;;;;;;;5.43;90.14;99912.52;628127;225;24847;-79
2021/04/30 05:30:11;;;;;;;10.73;8.37;;;;;;;5.44;90.05;99915.45;644430;221;25853;-79
2021/04/30 05:32:39;;;;;;;12.17;8.70;;;;;;;5.47;90.43;99919.06;642037;220;24819;-79
2021/04/30 05:35:08;;;;;;;12.30;9.37;;;;;;;5.42;90.52;99913.46;639148;221;24811;-79
2021/04/30 05:37:36;;;;;;;11.50;8.20;;;;;;;5.65;91.24;99916.36;631081;225;24833;-79
2021/04/30 05:40:04;;;;;;;11.27;8.97;;;;;;;5.68;91.05;99916.58;649146;221;24841;-79
2021/04/30 05:42:32;;;;;;;11.00;9.10;;;;;;;5.74;90.85;99911.74;628941;225;24842;-78
2021/04/30 05:45:00;;;;;;;12.03;8.57;;;;;;;5.80;90.74;99907.40;632203;225;24864;-79
2021/04/30 05:47:28;;;;;;;12.23;8.63;;;;;;;5.80;90.45;99904.81;639399;221;26089;-79
2021/04/30 05:49:56;;;;;;;13.53;9.00;;;;;;;5.71;90.03;99902.14;631221;225;24860;-79
2021/04/30 05:52:24;;;;;;;11.40;9.17;;;;;;;5.78;91.11;99908.00;644953;221;24811;-80
2021/04/30 05:54:53;;;;;;;13.90;9.17;;;;;;;5.66;91.63;99909.78;646828;221;24881;-79
2021/04/30 05:57:21;;;;;;;9.23;7.97;;;;;;;5.75;92.03;99919.01;630332;225;24844;-79
2021/04/30 05:59:49;;;;;;;10.60;8.77;;;;;;;5.88;92.85;99918.38;633862;225;24821;-80
2021/04/30 06:02:16;;;;;;;13.65;11.20;;;;;;;6.10;92.65;99921.40;630130;225;32934;-80
2021/04/30 06:04:44;;;;;;;13.03;9.90;;;;;;;6.00;92.75;99916.15;640745;222;23713;-79
2021/04/30 06:07:12;;;;;;;12.67;10.10;;;;;;;6.02;93.44;99921.19;643851;221;25068;-79
2021/04/30 06:09:40;;;;;;;15.70;8.97;;;;;;;6.15;93.23;99915.38;641524;221;26978;-79
2021/04/30 06:12:08;;;;;;;15.30;10.30;;;;;;;6.32;93.01;99912.71;642193;221;24823;-77
2021/04/30 06:14:36;;;;;;;11.07;9.30;;;;;;;6.28;93.74;99908.28;638068;222;24835;-79
2021/04/30 06:17:05;;;;;;;12.40;10.17;;;;;;;6.51;94.17;99912.39;639385;222;25844;-79
2021/04/30 06:19:34;;;;;;;13.60;10.73;;;;;;;6.63;93.97;99913.14;643749;219;24799;-79
2021/04/30 06:22:02;;;;;;;13.43;10.70;;;;;;;6.82;92.57;99901.61;645362;220;24840;-78
2021/04/30 06:24:29;;;;;;;17.30;12.20;;;;;;;7.20;91.30;99893.67;637814;221;32772;-78
2021/04/30 06:26:57;;;;;;;14.68;11.83;;;;;;;7.22;87.06;99873.66;628809;225;32938;-79
2021/04/30 06:29:25;;;;;;;14.13;11.85;;;;;;;7.25;86.32;99875.98;637196;221;32829;-79
2021/04/30 06:31:53;;;;;;;12.40;10.60;;;;;;;7.08;86.33;99874.84;640741;221;23672;-79
2021/04/30 06:34:21;;;;;;;13.90;10.80;;;;;;;7.09;85.92;99882.94;630731;225;28075;-79
2021/04/30 06:36:49;;;;;;;15.57;10.87;;;;;;;7.17;86.56;99880.16;635276;225;24911;-79
2021/04/30 06:39:17;;;;;;;13.00;10.90;;;;;;;7.17;87.63;99880.16;628723;225;24879;-79
2021/04/30 06:41:44;;;;;;;17.63;10.53;;;;;;;7.11;86.90;99881.52;629696;225;24954;-79
2021/04/30 06:44:12;;;;;;;16.47;11.30;;;;;;;7.33;87.90;99889.55;630321;226;24860;-79
2021/04/30 06:46:40;;;;;;;16.83;11.50;;;;;;;7.48;87.36;99906.34;643172;221;24831;-79
2021/04/30 06:49:08;;;;;;;14.43;10.73;;;;;;;7.69;85.90;99898.46;640273;221;27974;-79
2021/04/30 06:51:36;;;;;;;18.30;11.30;;;;;;;7.82;86.62;99900.31;630238;226;24863;-79
2021/04/30 06:54:05;;;;;;;16.40;12.60;;;;;;;8.01;85.97;99894.31;638846;221;26166;-79
2021/04/30 06:56:32;;;;;;;13.63;10.97;;;;;;;8.19;84.30;99884.92;632301;225;24848;-79
2021/04/30 06:59:00;;;;;;;16.93;12.10;;;;;;;8.17;83.34;99876.48;637863;225;24884;-79
2021/04/30 07:01:28;;;;;;;21.23;12.13;;;;;;;8.44;83.40;99886.13;642300;221;24820;-79
2021/04/30 07:03:56;;;;;;;16.67;12.63;;;;;;;8.23;83.60;99882.87;644120;221;24808;-79
2021/04/30 07:06:24;;;;;;;15.40;11.70;;;;;;;8.03;82.67;99882.89;648595;221;25019;-79
2021/04/30 07:08:52;;;;;;;17.63;13.77;;;;;;;7.94;83.46;99878.52;641669;221;24826;-79
2021/04/30 07:11:20;;;;;;;14.67;11.57;;;;;;;7.99;80.95;99874.22;626923;226;24842;-79
2021/04/30 07:13:47;;;;;;;18.37;13.40;;;;;;;8.12;82.12;99872.17;639539;221;24950;-79
2021/04/30 07:16:16;;;;;;;17.07;12.63;;;;;;;8.31;82.98;99881.23;626822;225;24845;-79
2021/04/30 07:18:44;;;;;;;16.30;12.30;;;;;;;8.42;82.11;99877.67;641725;222;24820;-79
2021/04/30 07:21:12;;;;;;;15.70;13.13;;;;;;;8.58;81.55;99880.98;631707;226;24865;-79
2021/04/30 07:23:40;;;;;;;16.33;13.00;;;;;;;8.60;79.78;99857.88;640137;221;24800;-79
2021/04/30 07:26:08;;;;;;;17.47;12.43;;;;;;;8.60;80.64;99855.76;627859;225;25016;-79
2021/04/30 07:28:36;;;;;;;16.80;13.30;;;;;;;8.72;80.43;99862.86;640197;221;24810;-79
2021/04/30 07:31:05;;;;;;;18.33;13.13;;;;;;;8.87;79.04;99860.98;644202;221;25043;-79
2021/04/30 07:33:34;;;;;;;17.70;13.20;;;;;;;8.99;78.19;99862.89;623724;225;43666;-79
2021/04/30 07:36:02;;;;;;;19.37;13.10;;;;;;;9.08;76.79;99866.41;627835;225;24837;-79
2021/04/30 07:38:30;;;;;;;16.60;13.20;;;;;;;9.10;78.10;99860.59;639023;220;24832;-79
2021/04/30 07:40:58;;;;;;;18.00;14.20;;;;;;;9.22;78.57;99867.22;644193;221;24816;-79
2021/04/30 07:43:26;;;;;;;19.53;13.60;;;;;;;9.13;77.67;99871.97;645755;220;25891;-79
2021/04/30 07:45:54;;;;;;;18.07;12.63;;;;;;;9.21;78.43;99880.67;629333;225;24886;-78
2021/04/30 07:48:22;;;;;;;16.30;12.40;;;;;;;9.15;77.04;99883.05;646076;221;24812;-79
2021/04/30 07:50:50;;;;;;;17.00;13.53;;;;;;;9.19;77.51;99885.20;628179;225;27069;-79
2021/04/30 07:53:18;;;;;;;17.47;12.80;;;;;;;9.08;76.55;99892.34;640348;221;25085;-79
2021/04/30 07:55:46;;;;;;;19.90;14.43;;;;;;;9.09;76.45;99881.01;632321;225;27017;-79
2021/04/30 07:58:14;;;;;;;17.80;14.17;;;;;;;8.85;75.66;99881.03;626848;225;24858;-79
2021/04/30 08:00:44;;;;;;;22.03;14.27;;;;;;;8.99;76.27;99881.52;630506;223;24877;-79
2021/04/30 08:03:11;;;;;;;17.20;13.53;;;;;;;9.00;75.92;99881.38;628072;225;24829;-79
2021/04/30 08:05:38;;;;;;;24.33;14.80;;;;;;;8.99;75.78;99890.59;625868;225;24849;-79
2021/04/30 08:08:06;;;;;;;16.33;14.17;;;;;;;9.09;76.65;99889.61;642478;221;24814;-79
2021/04/30 08:10:34;;;;;;;20.13;14.50;;;;;;;9.10;75.14;99889.94;641533;221;26079;-79
2021/04/30 08:13:02;;;;;;;20.27;14.50;;;;;;;9.14;75.12;99897.77;634235;225;25068;-78
2021/04/30 08:15:31;;;;;;;19.57;15.00;;;;;;;9.10;76.69;99906.80;631429;225;24836;-79
2021/04/30 08:17:59;;;;;;;22.53;15.40;;;;;;;9.18;75.63;99908.70;639504;221;24858;-73
2021/04/30 08:20:27;;;;;;;16.50;14.00;;;;;;;9.27;75.05;99907.00;626722;226;26089;-74
2021/04/30 08:22:55;;;;;;;17.65;15.00;;;;;;;9.41;73.85;99907.33;634649;221;32767;-74
2021/04/30 08:25:23;;;;;;;18.70;14.10;;;;;;;9.35;73.28;99901.43;643587;221;24885;-74
2021/04/30 08:27:51;;;;;;;20.48;15.78;;;;;;;9.53;75.25;99906.17;622135;226;33014;-74
2021/04/30 08:30:19;;;;;;;22.10;14.17;;;;;;;9.47;76.27;99918.92;642482;221;23700;-73
2021/04/30 08:32:47;;;;;;;17.17;13.43;;;;;;;9.40;74.06;99913.97;634185;225;24844;-74
2021/04/30 08:35:15;;;;;;;15.70;13.40;;;;;;;9.35;73.45;99913.59;644312;221;24865;-74
2021/04/30 08:37:42;;;;;;;17.43;14.37;;;;;;;9.22;74.71;99902.25;638896;221;24808;-73
2021/04/30 08:40:11;;;;;;;23.23;14.23;;;;;;;9.25;75.35;99907.14;626722;226;24854;-74
2021/04/30 08:42:40;;;;;;;20.73;14.80;;;;;;;9.18;74.94;99905.62;639152;223;24828;-75
2021/04/30 08:45:13;;;;;;;20.87;14.23;;;;;;;9.24;74.68;99904.22;630824;225;28073;-74
2021/04/30 08:47:41;;;;;;;18.23;14.07;;;;;;;9.23;76.05;99906.48;642463;220;25211;-74
2021/04/30 08:50:09;;;;;;;17.70;14.30;;;;;;;9.38;75.28;99910.22;635148;225;24929;-74
2021/04/30 08:52:37;;;;;;;17.83;14.37;;;;;;;9.40;75.69;99910.89;634856;225;24885;-74
2021/04/30 08:55:08;;;;;;;20.60;15.10;;;;;;;9.43;76.35;99922.30;634438;225;24889;-73
2021/04/30 08:57:35;;;;;;;19.07;14.87;;;;;;;9.44;74.59;99911.44;626522;226;24834;-74
2021/04/30 09:00:01;;;;;;;22.27;14.70;;;;;;;9.31;75.68;99913.07;641606;223;24844;-73
2021/04/30 09:02:29;;;;;;;21.17;14.70;;;;;;;9.46;75.05;99909.51;645129;221;24794;-74
2021/04/30 09:04:57;;;;;;;22.80;15.13;;;;;;;9.60;74.38;99910.80;636460;225;25124;-73
2021/04/30 09:07:25;;;;;;;17.63;13.43;;;;;;;9.73;74.25;99909.95;640775;221;24814;-74
2021/04/30 09:09:57;;;;;;;19.10;14.47;;;;;;;9.58;73.63;99912.24;647437;221;24833;-74
2021/04/30 09:12:25;;;;;;;22.32;17.42;;;;;;;10.01;73.52;99899.02;624361;225;32926;-73
2021/04/30 09:14:53;;;;;;;19.00;15.67;;;;;;;9.75;74.07;99901.05;628835;225;26928;-74
2021/04/30 09:17:21;;;;;;;25.40;16.20;;;;;;;9.55;74.22;99890.92;630189;225;29365;-74
2021/04/30 09:19:50;;;;;;;20.43;15.40;;;;;;;9.49;76.70;99895.75;640498;221;24837;-74
2021/04/30 09:22:17;;;;;;;21.27;16.17;;;;;;;9.48;78.19;99901.09;628656;226;24836;-74
2021/04/30 09:24:47;;;;;;;20.90;15.20;;;;;;;9.41;76.35;99897.43;642267;221;24797;-74
2021/04/30 09:27:15;;;;;;;20.87;16.23;;;;;;;9.78;77.74;99911.63;628562;225;24922;-74
2021/04/30 09:29:42;;;;;;;32.37;16.67;;;;;;;9.99;76.75;99906.97;644486;221;24821;-74
2021/04/30 09:32:11;;;;;;;19.63;16.10;;;;;;;9.89;75.30;99905.40;628189;225;24859;-74
2021/04/30 09:34:42;;;;;;;25.30;16.00;;;;;;;10.00;76.16;99904.70;643167;221;24812;-74
2021/04/30 09:37:10;;;;;;;21.17;16.43;;;;;;;10.12;78.45;99913.88;626711;225;24958;-74
2021/04/30 09:39:54;;;;;;;19.40;15.43;;;;;;;10.11;79.02;99925.23;642644;222;24802;-74
2021/04/30 09:42:22;;;;;;;27.50;17.27;;;;;;;10.03;79.76;99917.38;630956;225;24866;-74
2021/04/30 09:44:50;;;;;;;27.07;17.73;;;;;;;9.90;80.98;99920.83;628265;225;24835;-74
2021/04/30 09:47:21;;;;;;;27.33;16.60;;;;;;;10.09;81.79;99931.55;642659;221;24822;-74
2021/04/30 09:49:49;;;;;;;22.93;17.27;;;;;;;10.01;82.46;99935.39;642766;221;24805;-74
2021/04/30 09:52:17;;;;;;;21.47;15.53;;;;;;;9.97;82.18;99938.74;646655;221;24843;-74
2021/04/30 09:54:45;;;;;;;18.40;14.80;;;;;;;9.93;82.27;99933.52;641756;220;27974;-74
2021/04/30 09:57:16;;;;;;;18.00;13.53;;;;;;;10.07;80.09;99926.99;627135;225;27003;-74
2021/04/30 09:59:43;;;;;;;22.83;14.70;;;;;;;9.93;82.35;99931.41;639017;221;24849;-73
2021/04/30 10:02:13;;;;;;;19.60;14.27;;;;;;;9.96;80.65;99926.72;644005;220;24810;-74
2021/04/30 10:04:42;;;;;;;23.17;13.83;;;;;;;9.89;81.71;99927.00;633369;225;24893;-74
2021/04/30 10:07:09;;;;;;;18.90;13.97;;;;;;;9.83;80.54;99924.48;627840;225;24842;-74
2021/04/30 10:09:36;;;;;;;19.07;13.50;;;;;;;9.89;81.13;99911.89;628917;225;24907;-74
2021/04/30 10:12:15;;;;;;;17.53;13.47;;;;;;;9.89;80.51;99901.02;626799;225;27081;-74
2021/04/30 10:14:43;;;;;;;19.77;14.20;;;;;;;9.79;82.34;99905.46;641647;221;24832;-74
2021/04/30 10:17:12;;;;;;;16.90;13.90;;;;;;;9.78;83.11;99914.22;643573;221;24813;-74
2021/04/30 10:19:40;;;;;;;21.90;14.80;;;;;;;9.97;81.80;99910.66;630544;225;24869;-73
2021/04/30 10:22:08;;;;;;;17.50;14.47;;;;;;;9.93;81.59;99906.24;639427;221;24802;-75
2021/04/30 10:24:36;;;;;;;20.17;14.90;;;;;;;10.07;82.43;99916.11;632446;225;24871;-74
2021/04/30 10:27:04;;;;;;;18.50;15.30;;;;;;;10.15;82.03;99905.47;627831;225;24838;-74
2021/04/30 10:29:32;;;;;;;21.23;15.37;;;;;;;9.93;81.99;99907.55;633427;225;24836;-74
2021/04/30 10:32:00;;;;;;;20.77;14.17;;;;;;;10.02;81.38;99904.06;637177;225;24797;-75
2021/04/30 10:34:28;;;;;;;18.70;14.90;;;;;;;9.91;80.91;99900.87;638545;223;25100;-73
2021/04/30 10:36:55;;;;;;;19.40;11.83;;;;;;;9.76;80.46;99900.09;644519;221;24816;-72
2021/04/30 10:39:25;;;;;;;14.70;12.60;;;;;;;9.85;81.06;99901.45;628856;226;28017;-72
2021/04/30 10:41:52;;;;;;;16.50;13.20;;;;;;;9.72;79.92;99888.38;631089;225;24856;-72
2021/04/30 10:44:22;;;;;;;15.23;12.03;;;;;;;9.82;79.78;99893.47;631931;225;24682;-73
2021/04/30 10:46:49;;;;;;;18.27;13.57;;;;;;;9.89;78.97;99892.41;638260;221;24814;-72
2021/04/30 10:49:19;;;;;;;13.17;11.77;;;;;;;9.66;79.67;99888.94;638032;221;24809;-73
2021/04/30 10:52:16;;;;;;;14.73;11.33;;;;;;;9.73;80.09;99889.19;630075;225;24852;-72
2021/04/30 10:54:44;;;;;;;15.20;11.90;;;;;;;9.82;80.63;99888.28;632691;225;24906;-72
2021/04/30 10:57:12;;;;;;;16.70;10.90;;;;;;;9.71;81.70;99900.17;634114;225;24904;-72
2021/04/30 10:59:44;;;;;;;17.07;13.20;;;;;;;10.11;80.33;99901.03;623746;225;34716;-72
2021/04/30 11:02:12;;;;;;;15.87;12.50;;;;;;;9.90;79.21;99900.05;645267;221;24834;-72
2021/04/30 11:04:40;;;;;;;14.40;11.00;;;;;;;9.97;78.95;99898.48;639641;222;24864;-73
2021/04/30 11:07:09;;;;;;;14.33;12.83;;;;;;;10.36;77.99;99895.58;640364;219;32802;-75
2021/04/30 11:09:36;;;;;;;16.20;12.00;;;;;;;10.24;79.54;99903.28;631279;225;24860;-72
2021/04/30 11:12:10;;;;;;;12.70;10.80;;;;;;;10.36;78.54;99915.89;645340;220;24803;-72
2021/04/30 11:14:38;;;;;;;21.20;12.40;;;;;;;10.49;77.33;99915.50;642919;221;28106;-72
2021/04/30 11:17:05;;;;;;;13.70;10.97;;;;;;;10.56;79.62;99919.63;632834;225;24888;-73
2021/04/30 11:19:33;;;;;;;13.90;11.80;;;;;;;10.53;80.36;99925.92;636129;221;24808;-72
2021/04/30 11:22:11;;;;;;;14.23;11.50;;;;;;;10.40;80.39;99943.70;626907;225;24917;-72
2021/04/30 11:24:41;;;;;;;12.10;10.80;;;;;;;10.10;81.45;99950.08;645333;221;25141;-74
2021/04/30 11:27:30;;;;;;;13.03;10.80;;;;;;;10.08;82.30;99965.81;643616;221;24828;-72
2021/04/30 11:30:08;;;;;;;16.40;13.07;;;;;;;9.83;83.02;99955.66;624678;225;24871;-75
2021/04/30 11:32:36;;;;;;;18.10;13.10;;;;;;;9.65;84.37;99965.69;645263;221;24906;-75
2021/04/30 11:35:05;;;;;;;16.17;12.80;;;;;;;9.77;84.47;99965.83;628558;225;24846;-72
2021/04/30 11:37:33;;;;;;;17.20;13.33;;;;;;;9.87;84.72;99972.27;642046;221;24885;-72